createdAt,value
2019-02-23T00:00:42.925Z,8.90
2019-02-23T00:03:50.361Z,7.43
2019-02-23T00:06:57.655Z,7.17
2019-02-23T00:10:06.085Z,6.87
2019-02-23T00:13:13.913Z,7.90
2019-02-23T00:16:21.957Z,7.03
2019-02-23T00:19:29.385Z,7.97
2019-02-23T00:22:36.667Z,8.27
2019-02-23T00:25:44.202Z,6.90
2019-02-23T00:28:51.636Z,7.90
2019-02-23T00:31:59.313Z,7.53
2019-02-23T00:35:06.694Z,7.93
2019-02-23T00:38:14.374Z,7.97
2019-02-23T00:41:21.673Z,8.77
2019-02-23T00:44:29.043Z,11.47
2019-02-23T00:47:36.590Z,8.30
2019-02-23T00:50:43.975Z,8.00
2019-02-23T00:53:51.143Z,10.47
2019-02-23T00:56:58.564Z,9.07
2019-02-23T01:00:08.400Z,7.60
2019-02-23T01:03:15.912Z,7.40
2019-02-23T01:06:23.512Z,8.33
2019-02-23T01:09:31.130Z,7.93
2019-02-23T01:12:38.794Z,9.83
2019-02-23T01:15:46.108Z,8.33
2019-02-23T01:18:53.367Z,9.43
2019-02-23T01:22:00.775Z,8.67
2019-02-23T01:25:08.859Z,9.47
2019-02-23T01:28:16.550Z,6.47
2019-02-23T01:31:23.730Z,8.70
2019-02-23T01:34:31.294Z,9.87
2019-02-23T01:37:38.780Z,8.07
2019-02-23T01:40:46.308Z,11.73
2019-02-23T01:43:53.584Z,11.23
2019-02-23T01:47:01.275Z,11.43
2019-02-23T01:50:08.545Z,10.70
2019-02-23T01:53:16.363Z,11.10
2019-02-23T01:56:23.974Z,11.37
2019-02-23T01:59:31.273Z,10.50
2019-02-23T02:02:47.645Z,12.00
2019-02-23T02:05:56.070Z,11.93
2019-02-23T02:09:04.274Z,10.87
2019-02-23T02:12:13.812Z,13.50
2019-02-23T02:15:20.958Z,11.03
2019-02-23T02:18:28.618Z,12.53
2019-02-23T02:21:36.434Z,11.60
2019-02-23T02:24:43.815Z,14.33
2019-02-23T02:27:51.105Z,17.07
2019-02-23T02:30:58.685Z,13.60
2019-02-23T02:34:08.612Z,12.73
2019-02-23T02:37:16.166Z,13.17
2019-02-23T02:40:23.522Z,11.13
2019-02-23T02:43:30.688Z,11.17
2019-02-23T02:46:38.513Z,10.50
2019-02-23T02:49:45.699Z,11.93
2019-02-23T02:52:53.104Z,11.37
2019-02-23T02:56:00.280Z,10.30
2019-02-23T02:59:07.442Z,13.67
2019-02-23T03:02:15.009Z,13.47
2019-02-23T03:05:22.742Z,12.27
2019-02-23T03:08:29.997Z,12.13
2019-02-23T03:11:37.732Z,11.30
2019-02-23T03:14:45.168Z,13.20
2019-02-23T03:17:52.653Z,12.50
2019-02-23T03:21:00.084Z,13.30
2019-02-23T03:24:08.046Z,10.43
2019-02-23T03:27:15.238Z,14.10
2019-02-23T03:30:22.710Z,10.20
2019-02-23T03:33:30.343Z,12.67
2019-02-23T03:36:37.593Z,9.57
2019-02-23T03:39:44.762Z,12.30
2019-02-23T03:42:52.227Z,10.40
2019-02-23T03:46:00.026Z,12.07
2019-02-23T03:49:07.461Z,10.57
2019-02-23T03:52:14.895Z,10.77
2019-02-23T03:55:22.072Z,12.83
2019-02-23T03:58:29.716Z,12.70
2019-02-23T04:01:37.152Z,10.80
2019-02-23T04:04:45.467Z,10.80
2019-02-23T04:07:52.626Z,11.07
2019-02-23T04:10:59.913Z,10.77
2019-02-23T04:14:07.380Z,11.43
2019-02-23T04:17:14.922Z,11.77
2019-02-23T04:20:22.363Z,11.73
2019-02-23T04:23:30.009Z,11.17
2019-02-23T04:26:37.168Z,10.87
2019-02-23T04:29:46.915Z,10.50
2019-02-23T04:32:53.803Z,10.47
2019-02-23T04:36:01.703Z,9.80
2019-02-23T04:39:09.073Z,10.53
2019-02-23T04:42:16.735Z,9.50
2019-02-23T04:45:24.107Z,7.63
2019-02-23T04:48:31.624Z,8.97
2019-02-23T04:51:38.775Z,9.90
2019-02-23T04:54:46.358Z,5.93
2019-02-23T04:57:53.757Z,5.67
2019-02-23T05:01:01.122Z,8.70
2019-02-23T05:04:08.530Z,5.17
2019-02-23T05:07:15.786Z,6.43
2019-02-23T05:10:23.142Z,7.10
2019-02-23T05:13:30.664Z,4.73
2019-02-23T05:16:37.859Z,7.17
2019-02-23T05:19:45.298Z,5.30
2019-02-23T05:22:52.568Z,9.27
2019-02-23T05:25:59.733Z,3.47
2019-02-23T05:29:07.957Z,4.60
2019-02-23T05:32:15.983Z,4.00
2019-02-23T05:35:23.954Z,5.67
2019-02-23T05:38:31.814Z,6.27
2019-02-23T05:41:39.507Z,4.93
2019-02-23T05:44:46.867Z,5.33
2019-02-23T05:47:56.855Z,5.10
2019-02-23T05:51:04.555Z,5.67
2019-02-23T05:54:12.202Z,4.70
2019-02-23T05:57:20.397Z,6.33
2019-02-23T06:00:28.044Z,7.23
2019-02-23T06:03:35.196Z,6.87
2019-02-23T06:06:42.453Z,5.30
2019-02-23T06:09:49.694Z,7.03
2019-02-23T06:12:57.406Z,4.30
2019-02-23T06:16:05.149Z,5.60
2019-02-23T06:19:12.662Z,5.10
2019-02-23T06:22:20.154Z,4.43
2019-02-23T06:25:27.421Z,3.17
2019-02-23T06:28:34.949Z,5.53
2019-02-23T06:31:42.213Z,5.40
2019-02-23T06:34:50.236Z,6.00
2019-02-23T06:37:57.972Z,5.17
2019-02-23T06:41:05.491Z,7.20
2019-02-23T06:44:12.741Z,4.70
2019-02-23T06:47:19.996Z,4.13
2019-02-23T06:50:27.489Z,4.20
2019-02-23T06:53:34.988Z,4.23
2019-02-23T06:56:42.723Z,4.10
2019-02-23T06:59:50.083Z,7.27
2019-02-23T07:02:57.603Z,5.37
2019-02-23T07:06:04.791Z,7.63
2019-02-23T07:09:12.060Z,6.30
2019-02-23T07:12:19.652Z,6.10
2019-02-23T07:15:27.615Z,6.20
2019-02-23T07:18:34.773Z,5.40
2019-02-23T07:21:42.241Z,8.17
2019-02-23T07:24:49.868Z,5.70
2019-02-23T07:27:57.750Z,4.80
2019-02-23T07:31:07.497Z,3.67
2019-02-23T07:34:15.226Z,4.60
2019-02-23T07:37:23.074Z,3.60
2019-02-23T07:40:30.361Z,5.33
2019-02-23T07:43:38.097Z,5.40
2019-02-23T07:46:45.512Z,7.27
2019-02-23T07:49:52.680Z,6.30
2019-02-23T07:53:00.203Z,3.80
2019-02-23T07:56:07.757Z,4.20
2019-02-23T07:59:16.086Z,4.40
2019-02-23T08:02:25.777Z,4.53
2019-02-23T08:05:33.158Z,4.10
2019-02-23T08:08:40.416Z,3.67
2019-02-23T08:11:47.679Z,3.27
2019-02-23T08:14:55.078Z,3.83
2019-02-23T08:18:03.133Z,2.80
2019-02-23T08:21:10.749Z,3.23
2019-02-23T08:24:18.102Z,4.67
2019-02-23T08:27:25.440Z,3.00
2019-02-23T08:30:32.847Z,4.20
2019-02-23T08:33:40.238Z,3.43
2019-02-23T08:36:48.041Z,5.13
2019-02-23T08:39:55.644Z,4.03
2019-02-23T08:43:03.099Z,5.17
2019-02-23T08:46:10.565Z,7.40
2019-02-23T08:49:18.082Z,4.83
2019-02-23T08:52:32.368Z,6.40
2019-02-23T08:55:40.180Z,5.60
2019-02-23T08:58:47.582Z,3.53
2019-02-23T09:01:55.137Z,3.90
2019-02-23T09:08:11.950Z,5.00
2019-02-23T09:11:19.462Z,6.37
2019-02-23T09:14:27.352Z,6.43
2019-02-23T09:17:35.343Z,6.17
2019-02-23T09:20:42.782Z,3.90
2019-02-23T09:23:50.877Z,4.87
2019-02-23T09:26:58.340Z,4.43
2019-02-23T09:30:07.754Z,5.03
2019-02-23T09:33:15.853Z,4.53
2019-02-23T09:36:24.047Z,3.07
2019-02-23T09:39:32.197Z,6.13
2019-02-23T09:42:40.016Z,5.40
2019-02-23T09:45:47.519Z,5.67
2019-02-23T09:48:56.385Z,4.47
2019-02-23T09:52:04.251Z,6.30
2019-02-23T09:55:12.228Z,4.93
2019-02-23T09:58:20.420Z,5.67
2019-02-23T10:01:27.785Z,4.50
2019-02-23T10:04:35.532Z,4.27
2019-02-23T10:07:42.708Z,5.30
2019-02-23T10:10:50.225Z,4.67
2019-02-23T10:13:57.847Z,4.53
2019-02-23T10:17:05.715Z,3.33
2019-02-23T10:20:13.369Z,2.67
2019-02-23T10:23:22.239Z,3.17
2019-02-23T10:26:30.864Z,3.63
2019-02-23T10:29:38.638Z,4.00
2019-02-23T10:32:46.203Z,3.73
2019-02-23T10:35:53.813Z,3.67
2019-02-23T10:39:02.283Z,4.43
2019-02-23T10:42:09.559Z,3.87
2019-02-23T10:45:17.106Z,3.50
2019-02-23T10:48:24.576Z,2.73
2019-02-23T10:51:32.479Z,2.90
2019-02-23T10:54:40.021Z,4.27
2019-02-23T10:57:48.246Z,4.27
2019-02-23T11:00:56.061Z,3.77
2019-02-23T11:04:03.483Z,3.57
2019-02-23T11:07:11.391Z,4.33
2019-02-23T11:10:19.299Z,3.07
2019-02-23T11:13:27.105Z,3.70
2019-02-23T11:16:35.123Z,5.23
2019-02-23T11:19:42.287Z,5.30
2019-02-23T11:22:49.793Z,4.30
2019-02-23T11:25:57.419Z,5.00
2019-02-23T11:29:07.965Z,4.93
2019-02-23T11:32:15.898Z,4.60
2019-02-23T11:35:23.694Z,3.80
2019-02-23T11:38:31.730Z,5.10
2019-02-23T11:41:39.254Z,5.27
2019-02-23T11:44:47.427Z,7.37
2019-02-23T11:47:54.965Z,5.80
2019-02-23T11:51:02.885Z,4.30
2019-02-23T11:54:10.437Z,4.47
2019-02-23T11:57:18.397Z,5.37
2019-02-23T12:00:26.023Z,5.27
2019-02-23T12:03:33.877Z,3.67
2019-02-23T12:06:41.413Z,3.73
2019-02-23T12:09:49.210Z,4.87
2019-02-23T12:12:57.635Z,3.77
2019-02-23T12:16:05.538Z,3.70
2019-02-23T12:19:12.829Z,4.63
2019-02-23T12:22:20.950Z,4.60
2019-02-23T12:25:28.654Z,4.43
2019-02-23T12:28:36.317Z,4.20
2019-02-23T12:31:44.083Z,4.37
2019-02-23T12:34:51.936Z,3.90
2019-02-23T12:37:59.291Z,5.07
2019-02-23T12:41:11.578Z,7.30
2019-02-23T12:44:18.880Z,4.73
2019-02-23T12:47:26.532Z,4.50
2019-02-23T12:50:33.936Z,6.33
2019-02-23T12:53:41.369Z,6.40
2019-02-23T12:56:48.783Z,6.73
2019-02-23T12:59:56.208Z,4.37
2019-02-23T13:03:03.932Z,5.13
2019-02-23T13:06:11.705Z,4.93
2019-02-23T13:09:28.697Z,5.60
2019-02-23T13:13:29.165Z,4.90
2019-02-23T13:17:28.365Z,6.10
2019-02-23T13:21:22.943Z,5.63
2019-02-23T13:24:55.142Z,5.27
2019-02-23T13:29:08.010Z,6.27
2019-02-23T13:32:53.214Z,4.57
2019-02-23T13:37:01.832Z,5.13
2019-02-23T13:40:53.476Z,3.47
2019-02-23T13:44:23.199Z,5.20
2019-02-23T13:48:41.184Z,4.47
2019-02-23T13:53:01.132Z,5.17
2019-02-23T13:57:06.367Z,5.70
2019-02-23T14:00:57.158Z,7.33
2019-02-23T14:05:08.981Z,6.60
2019-02-23T14:09:15.983Z,5.07
2019-02-23T14:13:27.064Z,4.27
2019-02-23T14:17:20.593Z,5.00
2019-02-23T14:21:38.139Z,5.77
2019-02-23T14:26:09.792Z,4.37
2019-02-23T14:29:46.633Z,6.00
2019-02-23T14:33:25.650Z,5.43
2019-02-23T14:37:05.583Z,5.47
2019-02-23T14:41:07.522Z,4.17
2019-02-23T14:44:49.533Z,3.80
2019-02-23T14:49:01.500Z,3.80
2019-02-23T14:53:03.340Z,4.00
2019-02-23T14:56:25.485Z,3.30
2019-02-23T15:00:10.813Z,4.13
2019-02-23T15:04:28.197Z,4.23
2019-02-23T15:08:31.127Z,2.40
2019-02-23T15:12:30.242Z,4.47
2019-02-23T15:16:19.362Z,3.93
2019-02-23T15:20:07.675Z,3.50
2019-02-23T15:24:14.424Z,4.87
2019-02-23T15:28:01.081Z,3.70
2019-02-23T15:31:45.688Z,3.90
2019-02-23T15:35:20.979Z,1.70
2019-02-23T15:40:03.754Z,3.80
2019-02-23T15:44:02.889Z,3.57
2019-02-23T15:50:26.334Z,4.03
2019-02-23T15:53:33.666Z,3.80
2019-02-23T15:56:42.936Z,3.17
2019-02-23T15:59:50.575Z,3.40
2019-02-23T16:02:58.288Z,2.57
2019-02-23T16:06:06.162Z,1.70
2019-02-23T16:09:14.891Z,2.60
2019-02-23T16:12:23.024Z,2.03
2019-02-23T16:15:30.400Z,3.10
2019-02-23T16:21:54.101Z,2.83
2019-02-23T16:25:02.074Z,2.77
2019-02-23T16:28:11.284Z,3.70
2019-02-23T16:31:19.011Z,3.47
2019-02-23T16:34:26.313Z,3.87
2019-02-23T16:37:33.929Z,2.70
2019-02-23T16:40:41.113Z,2.97
2019-02-23T16:43:48.689Z,2.93
2019-02-23T16:46:56.516Z,2.77
2019-02-23T16:50:04.708Z,4.23
2019-02-23T16:53:12.227Z,2.13
2019-02-23T16:56:19.772Z,1.97
2019-02-23T16:59:27.410Z,1.90
2019-02-23T17:02:36.060Z,2.10
2019-02-23T17:05:44.103Z,1.63
2019-02-23T17:08:52.452Z,1.83
2019-02-23T17:12:01.865Z,3.40
2019-02-23T17:15:10.631Z,3.10
2019-02-23T17:18:18.726Z,2.50
2019-02-23T17:21:26.647Z,1.97
2019-02-23T17:24:35.147Z,4.83
2019-02-23T17:27:42.941Z,2.53
2019-02-23T17:30:51.312Z,5.97
2019-02-23T17:33:58.672Z,2.20
2019-02-23T17:37:06.657Z,2.67
2019-02-23T17:40:14.778Z,1.37
2019-02-23T17:43:22.787Z,2.27
2019-02-23T17:46:31.707Z,1.97
2019-02-23T17:49:39.901Z,1.57
2019-02-23T17:52:47.787Z,1.33
2019-02-23T17:55:55.798Z,1.37
2019-02-23T17:59:03.142Z,2.40
2019-02-23T18:02:10.735Z,2.20
2019-02-23T18:05:18.734Z,2.37
2019-02-23T18:08:26.548Z,2.37
2019-02-23T18:11:34.157Z,3.83
2019-02-23T18:14:42.267Z,1.20
2019-02-23T18:17:50.120Z,2.00
2019-02-23T18:20:57.650Z,1.77
2019-02-23T18:24:06.542Z,2.07
2019-02-23T18:27:14.807Z,1.40
2019-02-23T18:30:22.451Z,2.10
2019-02-23T18:33:30.299Z,17.03
2019-02-23T18:36:38.919Z,3.20
2019-02-23T18:39:47.238Z,4.67
2019-02-23T18:42:55.182Z,1.37
2019-02-23T18:46:02.939Z,1.67
2019-02-23T18:49:11.387Z,2.47
2019-02-23T18:52:18.979Z,3.50
2019-02-23T18:55:26.750Z,2.03
2019-02-23T18:58:35.045Z,1.70
2019-02-23T19:01:42.986Z,1.47
2019-02-23T19:04:53.225Z,3.63
2019-02-23T19:08:01.347Z,2.60
2019-02-23T19:11:09.502Z,2.20
2019-02-23T19:14:17.221Z,2.67
2019-02-23T19:17:24.709Z,4.67
2019-02-23T19:20:32.570Z,1.33
2019-02-23T19:23:40.368Z,3.93
2019-02-23T19:26:48.231Z,1.43
2019-02-23T19:29:55.825Z,4.53
2019-02-23T19:33:03.327Z,2.17
2019-02-23T19:36:10.695Z,1.90
2019-02-23T19:39:18.495Z,1.37
2019-02-23T19:42:25.848Z,3.13
2019-02-23T19:45:33.535Z,1.00
2019-02-23T19:48:41.465Z,2.03
2019-02-23T19:51:48.952Z,1.60
2019-02-23T19:54:56.556Z,1.53
2019-02-23T19:58:04.359Z,2.07
2019-02-23T20:01:11.690Z,1.37
2019-02-23T20:04:19.131Z,2.57
2019-02-23T20:07:27.268Z,6.47
2019-02-23T20:10:34.672Z,2.77
2019-02-23T20:13:43.691Z,2.80
2019-02-23T20:16:51.377Z,1.90
2019-02-23T20:19:59.759Z,8.27
2019-02-23T20:23:07.835Z,6.23
2019-02-23T20:26:16.543Z,3.63
2019-02-23T20:29:24.743Z,9.43
2019-02-23T20:32:32.667Z,5.83
2019-02-23T20:35:40.636Z,5.23
2019-02-23T20:38:48.460Z,1.67
2019-02-23T20:41:55.868Z,2.10
2019-02-23T20:45:03.520Z,1.33
2019-02-23T20:48:10.875Z,1.40
2019-02-23T20:51:18.592Z,1.13
2019-02-23T20:54:26.046Z,3.00
2019-02-23T20:57:33.378Z,1.77
2019-02-23T21:00:40.753Z,2.53
2019-02-23T21:03:48.351Z,2.27
2019-02-23T21:06:55.623Z,5.83
2019-02-23T21:10:04.203Z,4.23
2019-02-23T21:13:11.976Z,2.60
2019-02-23T21:16:19.478Z,5.83
2019-02-23T21:19:27.762Z,2.63
2019-02-23T21:22:35.803Z,2.43
2019-02-23T21:25:43.828Z,3.10
2019-02-23T21:28:51.922Z,6.07
2019-02-23T21:32:00.334Z,3.27
2019-02-23T21:35:09.704Z,1.53
2019-02-23T21:38:17.395Z,6.10
2019-02-23T21:41:25.265Z,2.00
2019-02-23T21:44:32.981Z,2.80
2019-02-23T21:47:40.686Z,2.87
2019-02-23T21:50:48.742Z,3.40
2019-02-23T21:53:56.639Z,2.57
2019-02-23T21:57:04.585Z,4.53
2019-02-23T22:00:12.047Z,2.60
2019-02-23T22:03:19.520Z,2.30
2019-02-23T22:06:27.806Z,2.93
2019-02-23T22:09:36.745Z,1.97
2019-02-23T22:12:44.513Z,1.50
2019-02-23T22:15:51.911Z,2.93
2019-02-23T22:18:59.531Z,0.93
2019-02-23T22:22:07.313Z,1.43
2019-02-23T22:25:14.745Z,1.33
2019-02-23T22:28:21.995Z,1.00
2019-02-23T22:31:29.605Z,1.97
2019-02-23T22:34:37.139Z,1.50
2019-02-23T22:37:44.545Z,2.43
2019-02-23T22:40:51.993Z,2.57
2019-02-23T22:43:59.424Z,1.73
2019-02-23T22:47:07.119Z,1.53
2019-02-23T22:50:14.474Z,3.57
2019-02-23T22:53:21.683Z,3.20
2019-02-23T22:56:28.932Z,1.83
2019-02-23T22:59:36.377Z,4.07
2019-02-23T23:02:43.867Z,3.13
2019-02-23T23:05:51.636Z,1.93
2019-02-23T23:08:58.784Z,2.67
2019-02-23T23:12:06.202Z,3.00
2019-02-23T23:15:13.465Z,2.03
2019-02-23T23:18:20.823Z,2.93
2019-02-23T23:21:28.711Z,4.37
2019-02-23T23:24:36.413Z,2.80
2019-02-23T23:27:49.368Z,2.83
2019-02-23T23:30:53.450Z,2.97
2019-02-23T23:34:00.955Z,3.23
2019-02-23T23:37:08.388Z,2.80
2019-02-23T23:40:15.536Z,2.37
2019-02-23T23:43:22.690Z,2.50
2019-02-23T23:46:29.839Z,2.20
2019-02-23T23:49:37.308Z,3.40
2019-02-23T23:52:45.038Z,2.93
2019-02-23T23:55:52.934Z,3.77
2019-02-23T23:59:02.605Z,4.03
